Terminal Aerodrome Forecast
Issued by NWS Wilmington, OH

Current Version | Previous Version | Text Only | Print | Product List | Glossary Off
Versions: 1 2 3 4 5 6 7 8 9 10 11 12 13 14 15 16 17 18 19 20 21 22 23 24 25 26 27 28

000
FTUS41 KILN 221135
TAFDAY
TAF
KDAY 221135Z 2212/2312 21008KT P6SM BKN110
     FM221500 21012G20KT P6SM BKN250
     FM222000 20014G22KT P6SM SCT040 OVC250
     FM230000 19014KT P6SM OVC040
     FM230300 19012KT P6SM VCSH OVC015
     FM230800 20012KT P6SM SHRA OVC012
     FM230900 22012KT 6SM SHRA BR OVC010=

USA.gov is the U.S. government's official web portal to all federal, state and local government web resources and services.